Terminal Aerodrome Forecast
Issued by NWS

Home | Current Version | Previous Version | Text Only | Print | Product List | Glossary On
Versions: 1 2 3 4 5 6 7 8 9 10 11 12 13 14
000
FTUS45 KABQ 241100
TAFFMN
TAF
KFMN 241139Z 2412/2512 09008KT P6SM SCT150
     FM241900 21011KT P6SM FEW100 SCT200
     FM242200 26010KT P6SM VCTS SCT090CB
     FM250200 VRB06KT P6SM SCT100 BKN150
     FM250700 09007KT P6SM SCT150=

USA.gov is the U.S. government's official web portal to all federal, state and local government web resources and services.